Pumpkin Center, Mississippi
Current Conditions -  °F | °C
As of 12:53 PM on Tuesday 27 Jan 2015 (Local Time) from KTUP Reporting Station
Clear Clear  
Wind Chill: 56°   Ceiling: Unl
Heat Index: 56°   Visibility: 10mi
Dew Point: 33°   Wind: 10mph
Humidity: 42%   Direction: 340°NNW
Pressure: 30.08"   Gusts: NA
Location:  34.4917°N, 88.9766°W
Report Text: KTUP 271853Z 34009KT 10SM CLR 13/01 A3008 RMK AO2 SLP188 T01330006
Loading
Personal Weather Stations






























Interactive Weather Map New forecast layout! Learn more

10-Day Weather Forecast

Advertisements
Track Severe Weather on mobile